sensor_id;sensor_type;location;lat;lon;timestamp;noise_LAeq;noise_LA_min;noise_LA_max;noise_LA01;noise_LA95
4048;Laerm;2038;51.728;6.674;2023-07-13T00:01:31;38.04;31.68;40.98;;
4048;Laerm;2038;51.728;6.674;2023-07-13T00:03:59;38.10;31.68;40.98;;
4048;Laerm;2038;51.728;6.674;2023-07-13T00:06:25;38.17;32.35;40.71;;
4048;Laerm;2038;51.728;6.674;2023-07-13T00:08:51;38.05;32.93;40.62;;
4048;Laerm;2038;51.728;6.674;2023-07-13T00:11:18;39.90;32.35;53.01;;
4048;Laerm;2038;51.728;6.674;2023-07-13T00:13:44;38.17;32.93;41.14;;
4048;Laerm;2038;51.728;6.674;2023-07-13T00:16:11;38.12;32.93;40.71;;
4048;Laerm;2038;51.728;6.674;2023-07-13T00:18:39;38.18;33.44;41.61;;
4048;Laerm;2038;51.728;6.674;2023-07-13T00:21:06;38.09;31.68;40.53;;
4048;Laerm;2038;51.728;6.674;2023-07-13T00:23:39;38.12;32.93;40.98;;
4048;Laerm;2038;51.728;6.674;2023-07-13T00:26:09;37.94;32.35;40.98;;
4048;Laerm;2038;51.728;6.674;2023-07-13T00:28:36;38.17;32.93;40.62;;
4048;Laerm;2038;51.728;6.674;2023-07-13T00:31:03;38.28;33.44;44.73;;
4048;Laerm;2038;51.728;6.674;2023-07-13T00:33:29;38.28;32.93;40.98;;
4048;Laerm;2038;51.728;6.674;2023-07-13T00:35:56;38.13;33.90;40.89;;
4048;Laerm;2038;51.728;6.674;2023-07-13T00:38:23;38.19;33.44;41.89;;
4048;Laerm;2038;51.728;6.674;2023-07-13T00:40:50;37.92;33.44;40.13;;
4048;Laerm;2038;51.728;6.674;2023-07-13T00:43:19;38.00;32.58;40.62;;
4048;Laerm;2038;51.728;6.674;2023-07-13T00:48:18;37.82;31.68;40.98;;
4048;Laerm;2038;51.728;6.674;2023-07-13T00:50:48;37.85;32.35;40.33;;
4048;Laerm;2038;51.728;6.674;2023-07-13T00:53:14;38.35;33.44;41.53;;
4048;Laerm;2038;51.728;6.674;2023-07-13T00:55:41;38.11;32.93;40.98;;
4048;Laerm;2038;51.728;6.674;2023-07-13T00:58:08;38.28;31.68;41.82;;
4048;Laerm;2038;51.728;6.674;2023-07-13T01:00:36;38.19;31.68;41.30;;
4048;Laerm;2038;51.728;6.674;2023-07-13T01:03:04;38.06;32.93;41.22;;
4048;Laerm;2038;51.728;6.674;2023-07-13T01:05:33;38.00;32.35;40.53;;
4048;Laerm;2038;51.728;6.674;2023-07-13T01:08:02;38.34;33.90;42.35;;
4048;Laerm;2038;51.728;6.674;2023-07-13T01:10:29;38.04;32.93;40.80;;
4048;Laerm;2038;51.728;6.674;2023-07-13T01:13:06;38.26;33.44;41.46;;
4048;Laerm;2038;51.728;6.674;2023-07-13T01:15:55;38.08;33.90;40.80;;
4048;Laerm;2038;51.728;6.674;2023-07-13T01:18:27;38.34;33.44;41.06;;
4048;Laerm;2038;51.728;6.674;2023-07-13T01:21:03;39.17;33.44;52.05;;
4048;Laerm;2038;51.728;6.674;2023-07-13T01:23:31;39.53;32.93;51.83;;
4048;Laerm;2038;51.728;6.674;2023-07-13T01:25:58;38.32;34.31;41.46;;
4048;Laerm;2038;51.728;6.674;2023-07-13T01:28:27;39.22;34.69;43.63;;
4048;Laerm;2038;51.728;6.674;2023-07-13T01:30:57;38.39;33.44;42.22;;
4048;Laerm;2038;51.728;6.674;2023-07-13T01:33:24;39.26;33.90;43.09;;
4048;Laerm;2038;51.728;6.674;2023-07-13T01:35:51;44.48;35.04;62.18;;
4048;Laerm;2038;51.728;6.674;2023-07-13T01:38:22;41.41;33.44;56.07;;
4048;Laerm;2038;51.728;6.674;2023-07-13T01:40:49;38.79;33.90;42.53;;
4048;Laerm;2038;51.728;6.674;2023-07-13T01:43:15;45.44;30.89;61.94;;
4048;Laerm;2038;51.728;6.674;2023-07-13T01:45:41;38.62;33.44;48.58;;
4048;Laerm;2038;51.728;6.674;2023-07-13T01:48:10;40.11;32.93;52.59;;
4048;Laerm;2038;51.728;6.674;2023-07-13T01:50:37;38.59;34.31;40.80;;
4048;Laerm;2038;51.728;6.674;2023-07-13T01:53:04;38.51;32.35;41.06;;
4048;Laerm;2038;51.728;6.674;2023-07-13T01:55:31;38.20;33.44;41.22;;
4048;Laerm;2038;51.728;6.674;2023-07-13T01:57:57;40.13;33.90;52.99;;
4048;Laerm;2038;51.728;6.674;2023-07-13T02:00:24;38.58;33.90;41.30;;
4048;Laerm;2038;51.728;6.674;2023-07-13T02:02:50;38.60;34.31;41.14;;
4048;Laerm;2038;51.728;6.674;2023-07-13T02:05:17;38.47;34.31;41.14;;
4048;Laerm;2038;51.728;6.674;2023-07-13T02:07:44;38.51;33.44;41.30;;
4048;Laerm;2038;51.728;6.674;2023-07-13T02:10:11;38.55;33.90;41.22;;
4048;Laerm;2038;51.728;6.674;2023-07-13T02:12:38;38.60;33.90;41.82;;
4048;Laerm;2038;51.728;6.674;2023-07-13T02:15:05;38.95;35.04;41.30;;
4048;Laerm;2038;51.728;6.674;2023-07-13T02:17:34;40.27;35.66;52.57;;
4048;Laerm;2038;51.728;6.674;2023-07-13T02:20:00;39.99;35.04;52.68;;
4048;Laerm;2038;51.728;6.674;2023-07-13T02:22:27;38.87;34.69;43.90;;
4048;Laerm;2038;51.728;6.674;2023-07-13T02:24:53;38.87;35.04;41.22;;
4048;Laerm;2038;51.728;6.674;2023-07-13T02:27:20;41.53;35.04;55.88;;
4048;Laerm;2038;51.728;6.674;2023-07-13T02:29:46;41.36;34.31;52.61;;
4048;Laerm;2038;51.728;6.674;2023-07-13T02:32:13;38.60;32.93;41.06;;
4048;Laerm;2038;51.728;6.674;2023-07-13T02:34:40;38.40;33.44;40.89;;
4048;Laerm;2038;51.728;6.674;2023-07-13T02:37:07;42.76;35.04;58.37;;
4048;Laerm;2038;51.728;6.674;2023-07-13T02:39:33;40.79;35.04;54.53;;
4048;Laerm;2038;51.728;6.674;2023-07-13T02:42:00;38.73;34.69;41.68;;
4048;Laerm;2038;51.728;6.674;2023-07-13T02:44:27;39.79;34.31;50.45;;
4048;Laerm;2038;51.728;6.674;2023-07-13T02:46:53;40.40;35.36;48.90;;
4048;Laerm;2038;51.728;6.674;2023-07-13T02:49:19;39.30;34.31;55.05;;
4048;Laerm;2038;51.728;6.674;2023-07-13T02:51:46;45.13;35.04;61.98;;
4048;Laerm;2038;51.728;6.674;2023-07-13T02:54:12;45.76;32.35;59.30;;
4048;Laerm;2038;51.728;6.674;2023-07-13T02:56:40;45.32;35.66;64.83;;
4048;Laerm;2038;51.728;6.674;2023-07-13T02:59:06;41.26;35.66;54.73;;
4048;Laerm;2038;51.728;6.674;2023-07-13T03:01:32;42.55;35.94;59.01;;
4048;Laerm;2038;51.728;6.674;2023-07-13T03:04:01;43.10;36.45;58.63;;
4048;Laerm;2038;51.728;6.674;2023-07-13T03:06:28;41.15;35.66;58.02;;
4048;Laerm;2038;51.728;6.674;2023-07-13T03:08:56;48.84;36.45;64.76;;
4048;Laerm;2038;51.728;6.674;2023-07-13T03:11:23;39.21;35.04;41.68;;
4048;Laerm;2038;51.728;6.674;2023-07-13T03:13:49;40.24;35.36;51.17;;
4048;Laerm;2038;51.728;6.674;2023-07-13T03:16:16;42.65;35.66;56.62;;
4048;Laerm;2038;51.728;6.674;2023-07-13T03:18:43;47.44;35.94;63.21;;
4048;Laerm;2038;51.728;6.674;2023-07-13T03:21:09;46.16;36.20;60.86;;
4048;Laerm;2038;51.728;6.674;2023-07-13T03:23:36;41.74;36.20;54.70;;
4048;Laerm;2038;51.728;6.674;2023-07-13T03:28:36;42.41;36.91;56.10;;
4048;Laerm;2038;51.728;6.674;2023-07-13T03:31:19;43.05;36.69;62.08;;
4048;Laerm;2038;51.728;6.674;2023-07-13T03:33:45;46.14;37.70;61.01;;
4048;Laerm;2038;51.728;6.674;2023-07-13T03:36:26;45.73;37.12;56.43;;
4048;Laerm;2038;51.728;6.674;2023-07-13T03:38:58;44.43;36.91;56.89;;
4048;Laerm;2038;51.728;6.674;2023-07-13T03:41:25;45.27;37.52;56.26;;
4048;Laerm;2038;51.728;6.674;2023-07-13T03:43:52;46.03;36.45;57.20;;
4048;Laerm;2038;51.728;6.674;2023-07-13T03:46:20;46.94;36.69;62.49;;
4048;Laerm;2038;51.728;6.674;2023-07-13T03:48:48;44.49;37.32;58.80;;
4048;Laerm;2038;51.728;6.674;2023-07-13T03:51:17;52.05;37.32;66.70;;
4048;Laerm;2038;51.728;6.674;2023-07-13T03:53:46;43.98;36.91;57.63;;
4048;Laerm;2038;51.728;6.674;2023-07-13T03:56:12;45.48;35.94;60.97;;
4048;Laerm;2038;51.728;6.674;2023-07-13T03:58:42;45.35;37.70;58.94;;
4048;Laerm;2038;51.728;6.674;2023-07-13T04:01:11;48.18;36.91;63.77;;
4048;Laerm;2038;51.728;6.674;2023-07-13T04:03:38;47.63;37.52;62.51;;
4048;Laerm;2038;51.728;6.674;2023-07-13T04:06:14;48.43;36.91;66.00;;
4048;Laerm;2038;51.728;6.674;2023-07-13T04:08:42;50.64;37.52;66.75;;
4048;Laerm;2038;51.728;6.674;2023-07-13T04:11:08;50.71;37.12;67.75;;
4048;Laerm;2038;51.728;6.674;2023-07-13T04:13:34;45.58;37.52;60.76;;
4048;Laerm;2038;51.728;6.674;2023-07-13T04:16:00;48.80;37.52;64.94;;
4048;Laerm;2038;51.728;6.674;2023-07-13T04:18:27;49.16;36.45;66.64;;
4048;Laerm;2038;51.728;6.674;2023-07-13T04:20:53;41.74;36.69;54.50;;
4048;Laerm;2038;51.728;6.674;2023-07-13T04:23:19;47.84;36.69;60.70;;
4048;Laerm;2038;51.728;6.674;2023-07-13T04:25:52;48.96;38.05;62.48;;
4048;Laerm;2038;51.728;6.674;2023-07-13T04:28:20;46.49;37.32;59.82;;
4048;Laerm;2038;51.728;6.674;2023-07-13T04:30:47;47.80;36.91;64.02;;
4048;Laerm;2038;51.728;6.674;2023-07-13T04:33:13;44.62;37.52;56.54;;
4048;Laerm;2038;51.728;6.674;2023-07-13T04:35:39;47.72;37.88;62.08;;
4048;Laerm;2038;51.728;6.674;2023-07-13T04:38:06;45.45;38.21;55.64;;
4048;Laerm;2038;51.728;6.674;2023-07-13T04:40:32;46.58;37.32;63.81;;
4048;Laerm;2038;51.728;6.674;2023-07-13T04:42:59;44.79;38.37;56.06;;
4048;Laerm;2038;51.728;6.674;2023-07-13T04:45:25;46.52;37.52;67.49;;
4048;Laerm;2038;51.728;6.674;2023-07-13T04:47:52;51.11;38.05;69.82;;
4048;Laerm;2038;51.728;6.674;2023-07-13T04:50:18;53.72;38.52;68.03;;
4048;Laerm;2038;51.728;6.674;2023-07-13T04:52:50;49.31;37.88;63.72;;
4048;Laerm;2038;51.728;6.674;2023-07-13T04:55:18;48.75;36.69;62.60;;
4048;Laerm;2038;51.728;6.674;2023-07-13T04:57:46;42.42;37.52;56.76;;
4048;Laerm;2038;51.728;6.674;2023-07-13T05:00:13;47.87;37.70;63.88;;
4048;Laerm;2038;51.728;6.674;2023-07-13T05:02:44;47.23;37.88;65.26;;
4048;Laerm;2038;51.728;6.674;2023-07-13T05:05:13;45.92;36.20;57.18;;
4048;Laerm;2038;51.728;6.674;2023-07-13T05:07:39;49.01;38.05;60.15;;
4048;Laerm;2038;51.728;6.674;2023-07-13T05:10:06;48.44;37.70;58.89;;
4048;Laerm;2038;51.728;6.674;2023-07-13T05:12:32;47.15;36.91;60.54;;
4048;Laerm;2038;51.728;6.674;2023-07-13T05:14:59;46.56;37.12;60.84;;
4048;Laerm;2038;51.728;6.674;2023-07-13T05:17:25;46.04;37.32;57.78;;
4048;Laerm;2038;51.728;6.674;2023-07-13T05:19:51;45.19;36.91;55.04;;
4048;Laerm;2038;51.728;6.674;2023-07-13T05:22:18;45.48;36.20;59.63;;
4048;Laerm;2038;51.728;6.674;2023-07-13T05:24:44;45.94;37.12;58.72;;
4048;Laerm;2038;51.728;6.674;2023-07-13T05:27:10;44.25;37.12;57.64;;
4048;Laerm;2038;51.728;6.674;2023-07-13T05:29:37;50.07;38.37;69.41;;
4048;Laerm;2038;51.728;6.674;2023-07-13T05:32:03;46.72;36.45;59.86;;
4048;Laerm;2038;51.728;6.674;2023-07-13T05:34:30;46.77;37.52;63.15;;
4048;Laerm;2038;51.728;6.674;2023-07-13T05:36:56;45.52;38.05;55.73;;
4048;Laerm;2038;51.728;6.674;2023-07-13T05:39:22;45.85;37.88;56.29;;
4048;Laerm;2038;51.728;6.674;2023-07-13T05:41:49;47.08;39.70;56.88;;
4048;Laerm;2038;51.728;6.674;2023-07-13T05:44:15;46.86;38.37;57.76;;
4048;Laerm;2038;51.728;6.674;2023-07-13T05:46:41;48.61;37.52;65.77;;
4048;Laerm;2038;51.728;6.674;2023-07-13T05:49:07;44.41;37.12;56.49;;
4048;Laerm;2038;51.728;6.674;2023-07-13T05:51:34;46.62;36.91;59.89;;
4048;Laerm;2038;51.728;6.674;2023-07-13T05:54:00;48.33;39.08;60.99;;
4048;Laerm;2038;51.728;6.674;2023-07-13T05:56:26;45.67;37.87;56.75;;
4048;Laerm;2038;51.728;6.674;2023-07-13T05:58:52;45.05;37.12;58.06;;
4048;Laerm;2038;51.728;6.674;2023-07-13T06:01:19;44.35;37.32;54.55;;
4048;Laerm;2038;51.728;6.674;2023-07-13T06:03:47;50.77;40.03;65.99;;
4048;Laerm;2038;51.728;6.674;2023-07-13T06:06:13;46.44;37.70;60.29;;
4048;Laerm;2038;51.728;6.674;2023-07-13T06:08:40;45.05;38.05;57.47;;
4048;Laerm;2038;51.728;6.674;2023-07-13T06:11:17;47.95;38.05;61.96;;
4048;Laerm;2038;51.728;6.674;2023-07-13T06:13:44;45.44;37.52;55.95;;
4048;Laerm;2038;51.728;6.674;2023-07-13T06:16:11;50.25;39.35;65.40;;
4048;Laerm;2038;51.728;6.674;2023-07-13T06:18:39;44.07;37.32;53.90;;
4048;Laerm;2038;51.728;6.674;2023-07-13T06:21:10;49.71;37.88;65.77;;
4048;Laerm;2038;51.728;6.674;2023-07-13T06:23:37;44.10;36.45;55.58;;
4048;Laerm;2038;51.728;6.674;2023-07-13T06:26:05;49.13;38.52;65.46;;
4048;Laerm;2038;51.728;6.674;2023-07-13T06:28:33;46.20;37.32;55.88;;
4048;Laerm;2038;51.728;6.674;2023-07-13T06:31:00;44.50;36.91;56.55;;
4048;Laerm;2038;51.728;6.674;2023-07-13T06:33:27;44.84;36.45;56.04;;
4048;Laerm;2038;51.728;6.674;2023-07-13T06:35:53;45.70;37.52;57.12;;
4048;Laerm;2038;51.728;6.674;2023-07-13T06:38:21;45.74;38.37;55.55;;
4048;Laerm;2038;51.728;6.674;2023-07-13T06:40:47;47.50;36.45;58.80;;
4048;Laerm;2038;51.728;6.674;2023-07-13T06:43:14;47.10;36.91;60.31;;
4048;Laerm;2038;51.728;6.674;2023-07-13T06:45:46;44.91;35.94;56.36;;
4048;Laerm;2038;51.728;6.674;2023-07-13T06:48:16;52.53;36.45;66.53;;
4048;Laerm;2038;51.728;6.674;2023-07-13T06:50:43;46.63;37.70;60.13;;
4048;Laerm;2038;51.728;6.674;2023-07-13T06:53:12;48.37;36.69;62.97;;
4048;Laerm;2038;51.728;6.674;2023-07-13T06:55:39;45.56;37.32;58.09;;
4048;Laerm;2038;51.728;6.674;2023-07-13T06:58:06;44.66;36.91;55.28;;
4048;Laerm;2038;51.728;6.674;2023-07-13T07:00:32;52.44;37.88;79.34;;
4048;Laerm;2038;51.728;6.674;2023-07-13T07:02:58;48.10;38.21;72.73;;
4048;Laerm;2038;51.728;6.674;2023-07-13T07:05:25;48.17;39.34;62.32;;
4048;Laerm;2038;51.728;6.674;2023-07-13T07:07:55;45.38;37.32;55.99;;
4048;Laerm;2038;51.728;6.674;2023-07-13T07:10:21;46.32;37.12;58.11;;
4048;Laerm;2038;51.728;6.674;2023-07-13T07:12:48;49.98;35.36;67.56;;
4048;Laerm;2038;51.728;6.674;2023-07-13T07:15:14;48.88;37.32;80.59;;
4048;Laerm;2038;51.728;6.674;2023-07-13T07:17:40;44.61;36.69;68.86;;
4048;Laerm;2038;51.728;6.674;2023-07-13T07:20:07;47.68;38.05;62.38;;
4048;Laerm;2038;51.728;6.674;2023-07-13T07:22:34;43.01;36.20;56.12;;
4048;Laerm;2038;51.728;6.674;2023-07-13T07:25:00;46.29;37.12;59.40;;
4048;Laerm;2038;51.728;6.674;2023-07-13T07:27:27;50.01;37.88;62.52;;
4048;Laerm;2038;51.728;6.674;2023-07-13T07:29:53;44.11;36.91;55.05;;
4048;Laerm;2038;51.728;6.674;2023-07-13T07:32:20;42.93;36.20;52.71;;
4048;Laerm;2038;51.728;6.674;2023-07-13T07:34:46;46.24;36.45;57.23;;
4048;Laerm;2038;51.728;6.674;2023-07-13T07:37:14;45.51;36.69;55.21;;
4048;Laerm;2038;51.728;6.674;2023-07-13T07:39:40;45.05;37.35;56.09;;
4048;Laerm;2038;51.728;6.674;2023-07-13T07:42:07;49.57;37.70;63.67;;
4048;Laerm;2038;51.728;6.674;2023-07-13T07:44:34;44.33;37.32;57.22;;
4048;Laerm;2038;51.728;6.674;2023-07-13T07:47:01;49.51;37.32;62.95;;
4048;Laerm;2038;51.728;6.674;2023-07-13T07:49:27;46.83;38.37;59.33;;
4048;Laerm;2038;51.728;6.674;2023-07-13T07:51:54;47.91;34.31;64.97;;
4048;Laerm;2038;51.728;6.674;2023-07-13T07:54:20;44.39;38.05;52.74;;
4048;Laerm;2038;51.728;6.674;2023-07-13T07:56:46;43.61;36.45;53.91;;
4048;Laerm;2038;51.728;6.674;2023-07-13T07:59:12;47.27;36.69;58.84;;
4048;Laerm;2038;51.728;6.674;2023-07-13T08:01:38;46.96;37.52;60.09;;
4048;Laerm;2038;51.728;6.674;2023-07-13T08:04:05;49.27;35.86;73.99;;
4048;Laerm;2038;51.728;6.674;2023-07-13T08:06:33;42.74;37.12;54.65;;
4048;Laerm;2038;51.728;6.674;2023-07-13T08:09:00;47.19;38.81;56.78;;
4048;Laerm;2038;51.728;6.674;2023-07-13T08:11:27;49.68;39.08;64.79;;
4048;Laerm;2038;51.728;6.674;2023-07-13T08:13:53;44.78;37.88;54.40;;
4048;Laerm;2038;51.728;6.674;2023-07-13T08:16:19;49.79;41.06;64.30;;
4048;Laerm;2038;51.728;6.674;2023-07-13T08:18:46;45.18;38.95;56.25;;
4048;Laerm;2038;51.728;6.674;2023-07-13T08:21:12;48.41;38.52;61.73;;
4048;Laerm;2038;51.728;6.674;2023-07-13T08:23:38;48.64;37.70;59.78;;
4048;Laerm;2038;51.728;6.674;2023-07-13T08:26:04;46.97;38.67;59.79;;
4048;Laerm;2038;51.728;6.674;2023-07-13T08:28:32;48.33;39.08;62.01;;
4048;Laerm;2038;51.728;6.674;2023-07-13T08:31:04;47.03;38.05;60.41;;
4048;Laerm;2038;51.728;6.674;2023-07-13T08:33:30;45.90;38.87;59.11;;
4048;Laerm;2038;51.728;6.674;2023-07-13T08:35:57;45.22;37.70;56.28;;
4048;Laerm;2038;51.728;6.674;2023-07-13T08:38:23;46.18;38.52;55.83;;
4048;Laerm;2038;51.728;6.674;2023-07-13T08:40:53;46.37;39.08;58.68;;
4048;Laerm;2038;51.728;6.674;2023-07-13T08:43:29;46.73;37.32;61.00;;
4048;Laerm;2038;51.728;6.674;2023-07-13T08:46:23;46.78;39.70;58.78;;
4048;Laerm;2038;51.728;6.674;2023-07-13T08:49:01;47.13;39.81;60.19;;
4048;Laerm;2038;51.728;6.674;2023-07-13T08:51:43;46.00;39.58;58.30;;
4048;Laerm;2038;51.728;6.674;2023-07-13T08:54:28;50.06;38.21;67.24;;
4048;Laerm;2038;51.728;6.674;2023-07-13T08:56:58;48.70;39.21;63.50;;
4048;Laerm;2038;51.728;6.674;2023-07-13T08:59:32;51.32;38.81;67.65;;
4048;Laerm;2038;51.728;6.674;2023-07-13T09:02:26;48.13;38.74;63.13;;
4048;Laerm;2038;51.728;6.674;2023-07-13T09:10:31;47.02;38.95;61.53;;
4048;Laerm;2038;51.728;6.674;2023-07-13T09:13:19;47.73;38.81;62.62;;
4048;Laerm;2038;51.728;6.674;2023-07-13T09:15:50;44.29;38.95;54.23;;
4048;Laerm;2038;51.728;6.674;2023-07-13T09:18:38;48.81;38.05;64.95;;
4048;Laerm;2038;51.728;6.674;2023-07-13T09:21:18;48.79;38.37;59.66;;
4048;Laerm;2038;51.728;6.674;2023-07-13T09:23:52;44.08;39.46;55.17;;
4048;Laerm;2038;51.728;6.674;2023-07-13T09:26:22;47.42;38.37;59.65;;
4048;Laerm;2038;51.728;6.674;2023-07-13T09:28:57;48.00;41.14;60.55;;
4048;Laerm;2038;51.728;6.674;2023-07-13T09:31:36;49.54;39.58;66.12;;
4048;Laerm;2038;51.728;6.674;2023-07-13T09:34:12;45.60;37.70;62.42;;
4048;Laerm;2038;51.728;6.674;2023-07-13T09:36:39;51.09;39.70;66.06;;
4048;Laerm;2038;51.728;6.674;2023-07-13T09:41:52;45.60;39.08;62.68;;
4048;Laerm;2038;51.728;6.674;2023-07-13T09:44:36;52.67;41.30;67.63;;
4048;Laerm;2038;51.728;6.674;2023-07-13T09:47:15;45.38;38.37;57.73;;
4048;Laerm;2038;51.728;6.674;2023-07-13T09:49:42;48.03;39.08;58.58;;
4048;Laerm;2038;51.728;6.674;2023-07-13T09:52:15;50.35;41.30;65.30;;
4048;Laerm;2038;51.728;6.674;2023-07-13T09:54:48;52.37;39.21;66.26;;
4048;Laerm;2038;51.728;6.674;2023-07-13T09:57:27;48.86;41.30;62.56;;
4048;Laerm;2038;51.728;6.674;2023-07-13T09:59:55;50.35;42.22;62.46;;
4048;Laerm;2038;51.728;6.674;2023-07-13T10:02:32;52.10;40.71;68.01;;
4048;Laerm;2038;51.728;6.674;2023-07-13T10:05:05;48.00;41.22;63.10;;
4048;Laerm;2038;51.728;6.674;2023-07-13T10:07:40;46.21;37.88;60.14;;
4048;Laerm;2038;51.728;6.674;2023-07-13T10:10:18;47.90;37.32;60.06;;
4048;Laerm;2038;51.728;6.674;2023-07-13T10:12:46;49.67;42.16;65.03;;
4048;Laerm;2038;51.728;6.674;2023-07-13T10:15:25;46.78;39.92;55.51;;
4048;Laerm;2038;51.728;6.674;2023-07-13T10:17:53;49.00;38.05;64.32;;
4048;Laerm;2038;51.728;6.674;2023-07-13T10:20:21;47.50;39.70;60.47;;
4048;Laerm;2038;51.728;6.674;2023-07-13T10:23:05;46.79;37.88;57.77;;
4048;Laerm;2038;51.728;6.674;2023-07-13T10:25:41;47.68;40.89;61.43;;
4048;Laerm;2038;51.728;6.674;2023-07-13T10:28:37;49.15;38.52;63.16;;
4048;Laerm;2038;51.728;6.674;2023-07-13T10:31:12;46.82;40.03;55.44;;
4048;Laerm;2038;51.728;6.674;2023-07-13T10:33:39;47.58;41.53;57.72;;
4048;Laerm;2038;51.728;6.674;2023-07-13T10:36:40;50.45;40.71;63.39;;
4048;Laerm;2038;51.728;6.674;2023-07-13T10:39:23;50.47;39.81;63.91;;
4048;Laerm;2038;51.728;6.674;2023-07-13T10:41:58;48.03;38.81;60.49;;
4048;Laerm;2038;51.728;6.674;2023-07-13T10:44:31;48.51;40.71;58.57;;
4048;Laerm;2038;51.728;6.674;2023-07-13T10:47:02;47.65;40.08;58.96;;
4048;Laerm;2038;51.728;6.674;2023-07-13T10:49:34;46.85;41.68;55.61;;
4048;Laerm;2038;51.728;6.674;2023-07-13T10:52:03;45.30;39.34;54.54;;
4048;Laerm;2038;51.728;6.674;2023-07-13T10:54:33;50.44;39.46;62.61;;
4048;Laerm;2038;51.728;6.674;2023-07-13T10:57:17;46.33;38.05;62.04;;
4048;Laerm;2038;51.728;6.674;2023-07-13T11:00:14;46.49;37.88;60.88;;
4048;Laerm;2038;51.728;6.674;2023-07-13T11:02:40;52.68;39.81;67.40;;
4048;Laerm;2038;51.728;6.674;2023-07-13T11:05:30;46.03;36.98;57.57;;
4048;Laerm;2038;51.728;6.674;2023-07-13T11:14:04;49.89;42.41;59.29;;
4048;Laerm;2038;51.728;6.674;2023-07-13T11:16:44;50.08;42.41;61.21;;
4048;Laerm;2038;51.728;6.674;2023-07-13T11:22:10;50.74;42.76;66.40;;
4048;Laerm;2038;51.728;6.674;2023-07-13T11:24:56;46.01;39.92;56.58;;
4048;Laerm;2038;51.728;6.674;2023-07-13T11:27:50;43.57;37.12;52.64;;
4048;Laerm;2038;51.728;6.674;2023-07-13T11:33:18;47.65;40.03;61.46;;
4048;Laerm;2038;51.728;6.674;2023-07-13T11:36:12;47.22;38.02;64.43;;
4048;Laerm;2038;51.728;6.674;2023-07-13T11:38:48;49.27;41.22;64.20;;
4048;Laerm;2038;51.728;6.674;2023-07-13T11:41:26;48.14;41.82;55.49;;
4048;Laerm;2038;51.728;6.674;2023-07-13T11:44:28;47.21;38.05;62.12;;
4048;Laerm;2038;51.728;6.674;2023-07-13T11:46:54;48.62;39.46;66.00;;
4048;Laerm;2038;51.728;6.674;2023-07-13T11:49:28;44.62;39.70;53.83;;
4048;Laerm;2038;51.728;6.674;2023-07-13T11:51:57;45.48;39.58;58.47;;
4048;Laerm;2038;51.728;6.674;2023-07-13T11:54:32;45.15;36.69;58.12;;
4048;Laerm;2038;51.728;6.674;2023-07-13T11:57:23;47.36;37.88;61.92;;
4048;Laerm;2038;51.728;6.674;2023-07-13T11:59:52;44.12;37.32;52.30;;
4048;Laerm;2038;51.728;6.674;2023-07-13T12:02:37;41.52;35.66;54.08;;
4048;Laerm;2038;51.728;6.674;2023-07-13T12:05:06;42.64;35.94;53.68;;
4048;Laerm;2038;51.728;6.674;2023-07-13T12:07:36;53.13;36.20;66.38;;
4048;Laerm;2038;51.728;6.674;2023-07-13T12:10:24;44.40;36.45;57.16;;
4048;Laerm;2038;51.728;6.674;2023-07-13T12:12:57;48.76;37.88;67.84;;
4048;Laerm;2038;51.728;6.674;2023-07-13T12:15:38;50.13;42.41;74.72;;
4048;Laerm;2038;51.728;6.674;2023-07-13T12:18:20;47.08;39.81;69.79;;
4048;Laerm;2038;51.728;6.674;2023-07-13T12:20:50;50.53;40.23;63.42;;
4048;Laerm;2038;51.728;6.674;2023-07-13T12:23:32;52.30;39.08;66.42;;
4048;Laerm;2038;51.728;6.674;2023-07-13T12:26:02;45.49;38.37;57.42;;
4048;Laerm;2038;51.728;6.674;2023-07-13T12:28:43;59.51;40.80;83.01;;
4048;Laerm;2038;51.728;6.674;2023-07-13T12:34:12;54.96;42.76;69.11;;
4048;Laerm;2038;51.728;6.674;2023-07-13T12:36:54;55.42;44.62;66.31;;
4048;Laerm;2038;51.728;6.674;2023-07-13T12:39:47;53.58;46.58;74.30;;
4048;Laerm;2038;51.728;6.674;2023-07-13T12:45:02;58.11;47.04;72.43;;
4048;Laerm;2038;51.728;6.674;2023-07-13T12:47:30;56.99;44.35;69.00;;
4048;Laerm;2038;51.728;6.674;2023-07-13T12:50:03;54.92;44.35;77.77;;
4048;Laerm;2038;51.728;6.674;2023-07-13T12:52:34;54.06;41.68;69.12;;
4048;Laerm;2038;51.728;6.674;2023-07-13T12:55:21;49.63;39.92;64.41;;
4048;Laerm;2038;51.728;6.674;2023-07-13T12:57:57;52.23;40.45;63.74;;
4048;Laerm;2038;51.728;6.674;2023-07-13T13:00:35;56.02;40.43;68.78;;
4048;Laerm;2038;51.728;6.674;2023-07-13T13:03:26;51.46;41.22;61.79;;
4048;Laerm;2038;51.728;6.674;2023-07-13T13:06:05;52.67;40.45;63.75;;
4048;Laerm;2038;51.728;6.674;2023-07-13T13:08:33;50.83;40.89;62.14;;
4048;Laerm;2038;51.728;6.674;2023-07-13T13:11:01;52.42;40.53;65.46;;
4048;Laerm;2038;51.728;6.674;2023-07-13T13:13:28;49.79;40.23;61.79;;
4048;Laerm;2038;51.728;6.674;2023-07-13T13:15:54;54.17;40.23;69.83;;
4048;Laerm;2038;51.728;6.674;2023-07-13T13:18:23;53.49;40.98;67.19;;
4048;Laerm;2038;51.728;6.674;2023-07-13T13:20:51;52.57;39.46;66.51;;
4048;Laerm;2038;51.728;6.674;2023-07-13T13:23:19;52.83;40.03;65.93;;
4048;Laerm;2038;51.728;6.674;2023-07-13T13:25:49;53.40;39.81;71.02;;
4048;Laerm;2038;51.728;6.674;2023-07-13T13:28:20;49.21;39.58;62.58;;
4048;Laerm;2038;51.728;6.674;2023-07-13T13:30:49;49.77;39.92;64.15;;
4048;Laerm;2038;51.728;6.674;2023-07-13T13:33:19;48.99;39.46;62.54;;
4048;Laerm;2038;51.728;6.674;2023-07-13T13:35:46;48.18;39.34;60.24;;
4048;Laerm;2038;51.728;6.674;2023-07-13T13:38:14;53.76;40.13;69.27;;
4048;Laerm;2038;51.728;6.674;2023-07-13T13:40:44;49.74;39.58;60.41;;
4048;Laerm;2038;51.728;6.674;2023-07-13T13:43:25;50.78;40.62;62.18;;
4048;Laerm;2038;51.728;6.674;2023-07-13T13:45:58;48.57;39.70;62.66;;
4048;Laerm;2038;51.728;6.674;2023-07-13T13:48:34;50.68;39.46;64.01;;
4048;Laerm;2038;51.728;6.674;2023-07-13T13:51:14;51.64;39.46;63.66;;
4048;Laerm;2038;51.728;6.674;2023-07-13T13:53:41;48.49;39.08;60.19;;
4048;Laerm;2038;51.728;6.674;2023-07-13T13:56:08;50.20;39.34;61.47;;
4048;Laerm;2038;51.728;6.674;2023-07-13T13:58:34;49.21;38.52;62.18;;
4048;Laerm;2038;51.728;6.674;2023-07-13T14:01:00;55.86;40.03;68.50;;
4048;Laerm;2038;51.728;6.674;2023-07-13T14:03:27;51.58;39.58;62.41;;
4048;Laerm;2038;51.728;6.674;2023-07-13T14:05:55;50.51;38.52;62.55;;
4048;Laerm;2038;51.728;6.674;2023-07-13T14:08:23;50.04;38.52;60.17;;
4048;Laerm;2038;51.728;6.674;2023-07-13T14:10:56;52.06;39.08;64.41;;
4048;Laerm;2038;51.728;6.674;2023-07-13T14:13:38;53.19;38.67;65.19;;
4048;Laerm;2038;51.728;6.674;2023-07-13T14:16:18;46.07;39.34;60.06;;
4048;Laerm;2038;51.728;6.674;2023-07-13T14:18:46;47.26;38.67;60.19;;
4048;Laerm;2038;51.728;6.674;2023-07-13T14:21:19;51.73;37.88;66.81;;
4048;Laerm;2038;51.728;6.674;2023-07-13T14:23:48;49.04;38.81;60.28;;
4048;Laerm;2038;51.728;6.674;2023-07-13T14:26:18;51.17;39.34;69.38;;
4048;Laerm;2038;51.728;6.674;2023-07-13T14:28:55;56.68;38.67;71.57;;
4048;Laerm;2038;51.728;6.674;2023-07-13T14:31:23;51.78;38.52;64.94;;
4048;Laerm;2038;51.728;6.674;2023-07-13T14:33:50;49.87;39.08;59.08;;
4048;Laerm;2038;51.728;6.674;2023-07-13T14:36:37;51.63;38.37;67.45;;
4048;Laerm;2038;51.728;6.674;2023-07-13T14:39:18;50.71;38.67;60.72;;
4048;Laerm;2038;51.728;6.674;2023-07-13T14:41:45;50.00;38.95;60.14;;
4048;Laerm;2038;51.728;6.674;2023-07-13T14:44:20;49.68;37.88;60.40;;
4048;Laerm;2038;51.728;6.674;2023-07-13T14:46:47;50.22;38.21;61.30;;
4048;Laerm;2038;51.728;6.674;2023-07-13T14:49:36;50.71;38.21;60.21;;
4048;Laerm;2038;51.728;6.674;2023-07-13T14:54:36;57.48;39.70;72.53;;
4048;Laerm;2038;51.728;6.674;2023-07-13T14:57:13;53.29;39.46;65.27;;
4048;Laerm;2038;51.728;6.674;2023-07-13T14:59:40;51.34;39.70;62.80;;
4048;Laerm;2038;51.728;6.674;2023-07-13T15:02:25;52.73;38.60;64.51;;